createdAt,value
2018-12-07T00:01:11.650Z,79.28
2018-12-07T00:03:40.833Z,79.57
2018-12-07T00:06:10.242Z,79.23
2018-12-07T00:08:39.322Z,79.83
2018-12-07T00:11:08.417Z,79.92
2018-12-07T00:13:37.934Z,79.43
2018-12-07T00:16:07.188Z,80.05
2018-12-07T00:18:36.226Z,79.68
2018-12-07T00:21:05.634Z,80.31
2018-12-07T00:23:34.721Z,79.90
2018-12-07T00:26:03.810Z,80.16
2018-12-07T00:28:33.630Z,79.34
2018-12-07T00:31:02.648Z,79.76
2018-12-07T00:33:31.703Z,79.94
2018-12-07T00:36:01.239Z,79.57
2018-12-07T00:38:30.308Z,80.08
2018-12-07T00:40:59.394Z,80.25
2018-12-07T00:43:28.810Z,79.73
2018-12-07T00:46:04.501Z,80.66
2018-12-07T00:48:33.588Z,79.82
2018-12-07T00:51:02.654Z,79.75
2018-12-07T00:53:31.757Z,79.64
2018-12-07T00:56:01.256Z,79.25
2018-12-07T00:58:30.339Z,78.87
2018-12-07T01:00:59.421Z,79.40
2018-12-07T01:03:28.854Z,80.61
2018-12-07T01:05:57.934Z,79.70
2018-12-07T01:08:27.030Z,79.32
2018-12-07T01:10:56.544Z,79.19
2018-12-07T01:13:25.750Z,78.84
2018-12-07T01:15:54.819Z,79.53
2018-12-07T01:18:24.365Z,79.87
2018-12-07T01:20:53.429Z,79.92
2018-12-07T01:23:22.633Z,79.47
2018-12-07T01:25:52.133Z,79.53
2018-12-07T01:28:21.282Z,80.12
2018-12-07T01:30:50.337Z,79.59
2018-12-07T01:33:19.732Z,78.87
2018-12-07T01:35:48.919Z,79.23
2018-12-07T01:38:18.024Z,79.24
2018-12-07T01:40:47.427Z,78.60
2018-12-07T01:43:16.517Z,78.85
2018-12-07T01:45:46.194Z,79.95
2018-12-07T01:48:15.763Z,79.21
2018-12-07T01:50:44.821Z,78.66
2018-12-07T01:53:13.935Z,79.04
2018-12-07T01:55:43.343Z,79.46
2018-12-07T01:58:12.370Z,79.16
2018-12-07T02:00:41.496Z,79.39
2018-12-07T02:03:11.026Z,79.90
2018-12-07T02:05:40.105Z,79.27
2018-12-07T02:08:09.212Z,79.27
2018-12-07T02:10:39.336Z,79.69
2018-12-07T02:13:08.438Z,79.44
2018-12-07T02:15:37.514Z,79.54
2018-12-07T02:18:07.030Z,79.68
2018-12-07T02:20:36.113Z,78.68
2018-12-07T02:23:05.243Z,79.02
2018-12-07T02:25:34.643Z,78.98
2018-12-07T02:28:03.655Z,78.50
2018-12-07T02:30:32.962Z,78.96
2018-12-07T02:33:03.353Z,79.30
2018-12-07T02:35:32.495Z,78.61
2018-12-07T02:38:01.618Z,78.69
2018-12-07T02:40:31.307Z,78.39
2018-12-07T02:43:00.645Z,79.24
2018-12-07T02:45:29.738Z,78.75
2018-12-07T02:47:59.446Z,78.41
2018-12-07T02:50:28.470Z,78.46
2018-12-07T02:52:57.525Z,78.49
2018-12-07T02:55:27.355Z,78.23
2018-12-07T02:57:56.373Z,78.47
2018-12-07T03:00:25.422Z,79.06
2018-12-07T03:02:55.963Z,79.39
2018-12-07T03:05:24.993Z,79.25
2018-12-07T03:07:54.110Z,78.97
2018-12-07T03:10:23.563Z,78.86
2018-12-07T03:12:52.646Z,78.68
2018-12-07T03:15:21.747Z,78.64
2018-12-07T03:17:51.258Z,78.54
2018-12-07T03:20:20.334Z,78.53
2018-12-07T03:22:49.467Z,78.71
2018-12-07T03:25:18.655Z,79.22
2018-12-07T03:27:47.731Z,78.89
2018-12-07T03:30:16.737Z,78.34
2018-12-07T03:32:46.136Z,79.16
2018-12-07T03:35:15.532Z,78.51
2018-12-07T03:37:44.639Z,78.68
2018-12-07T03:40:14.029Z,79.06
2018-12-07T03:42:43.124Z,78.62
2018-12-07T03:45:12.126Z,78.43
2018-12-07T03:47:41.520Z,78.49
2018-12-07T03:50:10.538Z,78.56
2018-12-07T03:52:39.535Z,78.00
2018-12-07T03:55:08.908Z,78.97
2018-12-07T03:57:37.993Z,78.98
2018-12-07T04:00:08.869Z,78.18
2018-12-07T04:02:37.933Z,78.27
2018-12-07T04:05:07.094Z,78.47
2018-12-07T04:07:36.873Z,79.59
2018-12-07T04:10:06.180Z,78.85
2018-12-07T04:12:35.234Z,78.39
2018-12-07T04:15:05.403Z,78.24
2018-12-07T04:17:34.859Z,78.41
2018-12-07T04:20:04.169Z,78.19
2018-12-07T04:22:33.566Z,79.05
2018-12-07T04:25:02.715Z,78.01
2018-12-07T04:27:32.464Z,79.02
2018-12-07T04:30:12.900Z,78.88
2018-12-07T04:32:42.390Z,79.46
2018-12-07T04:35:13.135Z,78.06
2018-12-07T04:37:42.299Z,78.08
2018-12-07T04:40:11.347Z,78.24
2018-12-07T04:42:40.870Z,77.89
2018-12-07T04:45:10.775Z,77.98
2018-12-07T04:47:39.830Z,77.28
2018-12-07T04:50:09.793Z,77.16
2018-12-07T04:52:38.916Z,77.19
2018-12-07T04:55:08.516Z,77.15
2018-12-07T04:57:38.309Z,77.19
2018-12-07T05:00:08.936Z,78.07
2018-12-07T05:02:38.080Z,77.46
2018-12-07T05:05:08.142Z,77.99
2018-12-07T05:07:37.361Z,77.80
2018-12-07T05:10:07.376Z,77.42
2018-12-07T05:12:36.862Z,78.10
2018-12-07T05:15:07.632Z,77.97
2018-12-07T05:17:36.685Z,77.73
2018-12-07T05:20:07.226Z,78.17
2018-12-07T05:22:36.243Z,78.30
2018-12-07T05:25:05.711Z,78.52
2018-12-07T05:27:34.955Z,78.40
2018-12-07T05:30:04.354Z,77.82
2018-12-07T05:32:34.866Z,77.71
2018-12-07T05:35:04.286Z,78.51
2018-12-07T05:37:34.566Z,77.93
2018-12-07T05:40:04.604Z,77.36
2018-12-07T05:42:33.683Z,77.87
2018-12-07T05:45:02.918Z,78.24
2018-12-07T05:47:32.138Z,77.98
2018-12-07T05:50:01.343Z,78.09
2018-12-07T05:52:30.416Z,78.27
2018-12-07T05:54:59.595Z,77.67
2018-12-07T05:57:29.649Z,77.45
2018-12-07T05:59:58.814Z,78.48
2018-12-07T06:02:28.275Z,77.83
2018-12-07T06:04:57.369Z,77.90
2018-12-07T06:07:26.407Z,78.10
2018-12-07T06:09:56.203Z,79.02
2018-12-07T06:12:25.300Z,78.63
2018-12-07T06:14:55.051Z,78.61
2018-12-07T06:17:24.811Z,79.10
2018-12-07T06:19:54.511Z,78.73
2018-12-07T06:22:23.609Z,77.88
2018-12-07T06:24:53.234Z,78.20
2018-12-07T06:27:22.318Z,78.19
2018-12-07T06:29:51.669Z,78.07
2018-12-07T06:32:21.029Z,78.37
2018-12-07T06:34:50.106Z,77.41
2018-12-07T06:37:19.117Z,78.65
2018-12-07T06:39:48.204Z,78.83
2018-12-07T06:42:17.287Z,77.51
2018-12-07T06:44:46.402Z,78.13
2018-12-07T06:47:15.796Z,78.18
2018-12-07T06:49:44.885Z,77.01
2018-12-07T06:52:13.972Z,77.41
2018-12-07T06:54:43.218Z,77.77
2018-12-07T06:57:12.274Z,77.04
2018-12-07T06:59:41.353Z,76.87
2018-12-07T07:02:10.510Z,78.00
2018-12-07T07:04:39.553Z,77.77
2018-12-07T07:07:08.684Z,77.53
2018-12-07T07:09:38.069Z,78.24
2018-12-07T07:12:07.326Z,77.26
2018-12-07T07:14:36.344Z,77.65
2018-12-07T07:17:05.482Z,77.85
2018-12-07T07:19:34.528Z,77.23
2018-12-07T07:22:03.737Z,77.58
2018-12-07T07:24:33.350Z,77.51
2018-12-07T07:27:02.458Z,78.11
2018-12-07T07:29:31.534Z,78.07
2018-12-07T07:32:00.574Z,76.88
2018-12-07T07:34:29.579Z,77.24
2018-12-07T07:36:58.617Z,77.29
2018-12-07T07:39:27.750Z,77.36
2018-12-07T07:41:57.641Z,77.22
2018-12-07T07:44:26.719Z,78.05
2018-12-07T07:46:56.242Z,77.02
2018-12-07T07:49:25.287Z,77.29
2018-12-07T07:51:54.302Z,77.29
2018-12-07T07:54:23.826Z,77.84
2018-12-07T07:56:52.941Z,77.91
2018-12-07T07:59:22.004Z,78.09
2018-12-07T08:01:51.857Z,78.54
2018-12-07T08:04:20.870Z,78.37
2018-12-07T08:06:49.906Z,77.45
2018-12-07T08:09:19.039Z,77.77
2018-12-07T08:11:48.097Z,77.87
2018-12-07T08:14:17.137Z,78.12
2018-12-07T08:16:46.210Z,77.74
2018-12-07T08:19:15.211Z,77.78
2018-12-07T08:21:44.270Z,78.30
2018-12-07T08:24:13.405Z,77.17
2018-12-07T08:26:42.409Z,77.12
2018-12-07T08:29:11.606Z,78.09
2018-12-07T08:31:40.642Z,77.67
2018-12-07T08:34:09.736Z,78.22
2018-12-07T08:36:38.841Z,78.05
2018-12-07T08:39:10.554Z,77.32
2018-12-07T08:41:39.579Z,77.90
2018-12-07T08:44:09.042Z,77.86
2018-12-07T08:46:38.509Z,77.22
2018-12-07T08:49:07.592Z,76.89
2018-12-07T08:51:36.715Z,76.69
2018-12-07T08:54:05.794Z,76.46
2018-12-07T08:56:34.902Z,77.26
2018-12-07T08:59:05.306Z,76.59
2018-12-07T09:01:35.125Z,76.56
2018-12-07T09:04:04.434Z,77.30
2018-12-07T09:06:33.519Z,77.35
2018-12-07T09:09:04.152Z,76.54
2018-12-07T09:11:34.146Z,77.25
2018-12-07T09:14:03.150Z,76.93
2018-12-07T09:16:32.386Z,77.56
2018-12-07T09:19:01.450Z,76.62
2018-12-07T09:21:30.557Z,76.90
2018-12-07T09:23:59.660Z,76.38
2018-12-07T09:26:28.839Z,77.42
2018-12-07T09:28:58.121Z,77.20
2018-12-07T09:31:27.723Z,77.29
2018-12-07T09:33:56.829Z,77.04
2018-12-07T09:36:25.843Z,76.44
2018-12-07T09:38:55.001Z,77.05
2018-12-07T09:41:24.129Z,77.28
2018-12-07T09:43:53.310Z,77.75
2018-12-07T09:46:22.733Z,78.45
2018-12-07T09:48:51.759Z,79.24
2018-12-07T09:51:20.826Z,77.97
2018-12-07T09:53:50.144Z,78.65
2018-12-07T09:56:19.230Z,78.02
2018-12-07T09:58:48.298Z,79.13
2018-12-07T10:01:19.019Z,78.27
2018-12-07T10:03:48.241Z,78.34
2018-12-07T10:06:17.326Z,78.16
2018-12-07T10:08:46.567Z,78.24
2018-12-07T10:11:15.570Z,78.47
2018-12-07T10:13:45.042Z,77.95
2018-12-07T10:16:14.117Z,77.99
2018-12-07T10:18:43.210Z,77.67
2018-12-07T10:21:12.303Z,78.62
2018-12-07T10:23:41.423Z,76.93
2018-12-07T10:26:11.118Z,77.87
2018-12-07T10:28:40.131Z,77.35
2018-12-07T10:31:09.219Z,76.86
2018-12-07T10:33:38.290Z,76.38
2018-12-07T10:36:07.341Z,76.93
2018-12-07T10:38:36.395Z,76.49
2018-12-07T10:41:05.522Z,76.65
2018-12-07T10:43:34.568Z,77.51
2018-12-07T10:46:03.727Z,77.04
2018-12-07T10:48:32.771Z,76.51
2018-12-07T10:51:07.923Z,77.02
2018-12-07T10:53:33.319Z,77.34
2018-12-07T10:56:02.402Z,77.26
2018-12-07T10:58:31.486Z,77.21
2018-12-07T11:01:05.938Z,77.55
2018-12-07T11:03:40.230Z,77.45
2018-12-07T11:06:14.886Z,77.56
2018-12-07T11:08:49.874Z,77.42
2018-12-07T11:11:24.640Z,77.53
2018-12-07T11:13:58.885Z,77.85
2018-12-07T11:16:33.291Z,78.28
2018-12-07T11:19:07.567Z,77.80
2018-12-07T11:21:42.081Z,77.36
2018-12-07T11:24:16.643Z,78.07
2018-12-07T11:27:49.097Z,78.34
2018-12-07T11:30:23.498Z,77.71
2018-12-07T11:32:58.153Z,77.47
2018-12-07T11:35:30.637Z,77.78
2018-12-07T11:37:59.966Z,78.09
2018-12-07T11:40:28.991Z,77.56
2018-12-07T11:43:00.374Z,78.86
2018-12-07T11:45:29.447Z,78.96
2018-12-07T11:47:59.057Z,78.06
2018-12-07T11:50:28.282Z,78.64
2018-12-07T11:52:57.380Z,77.92
2018-12-07T11:55:26.448Z,77.73
2018-12-07T11:57:55.565Z,77.80
2018-12-07T12:00:24.650Z,77.37
2018-12-07T12:02:53.735Z,76.64
2018-12-07T12:05:22.858Z,76.22
2018-12-07T12:07:51.913Z,77.06
2018-12-07T12:10:21.150Z,76.24
2018-12-07T12:12:50.245Z,76.09
2018-12-07T12:15:19.317Z,76.17
2018-12-07T12:17:48.410Z,76.51
2018-12-07T12:20:17.821Z,76.46
2018-12-07T12:22:46.953Z,76.59
2018-12-07T12:25:16.019Z,75.62
2018-12-07T12:27:45.106Z,75.96
2018-12-07T12:30:14.194Z,75.24
2018-12-07T12:32:43.293Z,75.78
2018-12-07T12:35:12.710Z,76.51
2018-12-07T12:37:41.889Z,75.67
2018-12-07T12:40:11.122Z,76.32
2018-12-07T12:42:40.117Z,76.39
2018-12-07T12:45:09.422Z,76.42
2018-12-07T12:47:38.478Z,76.57
2018-12-07T12:50:11.974Z,76.50
2018-12-07T12:52:41.072Z,76.51
2018-12-07T12:55:10.169Z,77.04
2018-12-07T12:57:39.283Z,76.56
2018-12-07T13:00:08.277Z,76.89
2018-12-07T13:02:37.429Z,77.06
2018-12-07T13:05:06.977Z,76.49
2018-12-07T13:07:36.253Z,76.98
2018-12-07T13:10:05.461Z,76.66
2018-12-07T13:12:34.581Z,76.60
2018-12-07T13:15:04.589Z,77.61
2018-12-07T13:17:33.745Z,77.14
2018-12-07T13:20:02.901Z,76.83
2018-12-07T13:22:32.028Z,77.05
2018-12-07T13:25:01.597Z,76.61
2018-12-07T13:27:30.798Z,76.71
2018-12-07T13:30:00.350Z,77.15
2018-12-07T13:32:29.466Z,77.18
2018-12-07T13:34:58.880Z,76.72
2018-12-07T13:37:27.895Z,76.17
2018-12-07T13:39:57.040Z,76.17
2018-12-07T13:42:26.622Z,76.85
2018-12-07T13:44:55.835Z,77.80
2018-12-07T13:47:26.115Z,78.22
2018-12-07T13:50:02.428Z,77.89
2018-12-07T13:52:32.200Z,77.28
2018-12-07T13:55:02.471Z,77.38
2018-12-07T13:57:33.855Z,77.75
2018-12-07T14:00:05.269Z,77.85
2018-12-07T14:02:35.896Z,77.88
2018-12-07T14:05:06.691Z,78.06
2018-12-07T14:07:35.930Z,78.13
2018-12-07T14:10:05.923Z,78.21
2018-12-07T14:12:36.111Z,78.19
2018-12-07T14:15:05.978Z,78.00
2018-12-07T14:17:35.137Z,77.56
2018-12-07T14:20:05.455Z,76.59
2018-12-07T14:22:34.524Z,76.58
2018-12-07T14:25:04.634Z,77.15
2018-12-07T14:27:34.497Z,76.40
2018-12-07T14:30:04.280Z,76.47
2018-12-07T14:32:33.567Z,77.05
2018-12-07T14:35:03.654Z,76.59
2018-12-07T14:37:33.065Z,78.07
2018-12-07T14:40:02.465Z,76.75
2018-12-07T14:42:31.983Z,77.70
2018-12-07T14:45:02.194Z,76.93
2018-12-07T14:47:31.768Z,76.51
2018-12-07T14:50:01.129Z,77.72
2018-12-07T14:52:30.293Z,77.31
2018-12-07T14:54:59.501Z,77.12
2018-12-07T14:57:28.600Z,77.30
2018-12-07T14:59:57.707Z,78.07
2018-12-07T15:02:26.931Z,77.32
2018-12-07T15:04:56.881Z,77.59
2018-12-07T15:07:26.470Z,77.08
2018-12-07T15:09:56.649Z,77.89
2018-12-07T15:12:26.995Z,77.89
2018-12-07T15:14:56.125Z,77.56
2018-12-07T15:17:25.776Z,77.56
2018-12-07T15:19:55.382Z,77.63
2018-12-07T15:22:24.745Z,76.95
2018-12-07T15:24:55.479Z,76.64
2018-12-07T15:27:25.295Z,77.74
2018-12-07T15:29:54.486Z,76.94
2018-12-07T15:32:23.871Z,76.98
2018-12-07T15:34:53.045Z,76.49
2018-12-07T15:37:23.815Z,76.93
2018-12-07T15:39:53.055Z,76.90
2018-12-07T15:42:22.219Z,76.22
2018-12-07T15:44:51.361Z,76.79
2018-12-07T15:47:20.625Z,77.64
2018-12-07T15:49:50.035Z,77.36
2018-12-07T15:52:19.611Z,77.19
2018-12-07T15:54:48.978Z,77.57
2018-12-07T15:57:18.180Z,77.60
2018-12-07T15:59:47.619Z,77.61
2018-12-07T16:02:16.862Z,77.45
2018-12-07T16:04:45.960Z,77.31
2018-12-07T16:07:15.290Z,77.57
2018-12-07T16:09:44.577Z,77.60
2018-12-07T16:12:13.672Z,77.75
2018-12-07T16:14:43.230Z,78.11
2018-12-07T16:17:12.490Z,77.95
2018-12-07T16:19:41.976Z,77.94
2018-12-07T16:22:11.368Z,77.65
2018-12-07T16:24:41.437Z,77.86
2018-12-07T16:27:11.146Z,77.93
2018-12-07T16:29:40.443Z,77.86
2018-12-07T16:32:09.821Z,78.05
2018-12-07T16:34:39.233Z,77.49
2018-12-07T16:37:09.365Z,76.63
2018-12-07T16:39:38.730Z,77.19
2018-12-07T16:42:07.865Z,77.85
2018-12-07T16:44:36.999Z,77.58
2018-12-07T16:47:06.596Z,77.84
2018-12-07T16:49:35.956Z,77.61
2018-12-07T16:52:05.194Z,77.60
2018-12-07T16:54:34.323Z,78.03
2018-12-07T16:57:03.370Z,77.01
2018-12-07T16:59:32.576Z,77.17
2018-12-07T17:02:01.941Z,76.87
2018-12-07T17:04:31.166Z,76.66
2018-12-07T17:07:00.421Z,77.32
2018-12-07T17:09:30.178Z,76.81
2018-12-07T17:11:59.521Z,77.27
2018-12-07T17:14:28.896Z,77.73
2018-12-07T17:16:58.270Z,77.87
2018-12-07T17:19:27.584Z,77.96
2018-12-07T17:21:56.849Z,76.64
2018-12-07T17:24:26.194Z,77.17
2018-12-07T17:26:56.019Z,76.66
2018-12-07T17:29:26.303Z,77.07
2018-12-07T17:31:55.679Z,77.22
2018-12-07T17:34:25.038Z,77.11
2018-12-07T17:36:54.258Z,76.94
2018-12-07T17:39:23.539Z,77.03
2018-12-07T17:41:52.742Z,77.82
2018-12-07T17:44:21.891Z,77.36
2018-12-07T17:46:51.270Z,77.37
2018-12-07T17:49:20.496Z,77.34
2018-12-07T17:51:49.709Z,76.79
2018-12-07T17:54:19.185Z,79.02
2018-12-07T17:56:49.415Z,77.36
2018-12-07T17:59:18.473Z,77.50
2018-12-07T18:01:47.978Z,78.21
2018-12-07T18:04:16.997Z,77.49
2018-12-07T18:06:46.314Z,77.60
2018-12-07T18:09:15.424Z,77.95
2018-12-07T18:11:44.872Z,77.77
2018-12-07T18:14:14.592Z,78.13
2018-12-07T18:16:43.742Z,79.68
2018-12-07T18:19:13.113Z,79.24
2018-12-07T18:21:42.512Z,80.23
2018-12-07T18:24:11.722Z,79.61
2018-12-07T18:26:40.830Z,79.75
2018-12-07T18:29:10.087Z,80.05
2018-12-07T18:31:39.498Z,78.80
2018-12-07T18:34:08.673Z,78.45
2018-12-07T18:36:37.957Z,78.92
2018-12-07T18:39:08.467Z,78.29
2018-12-07T18:41:37.760Z,78.23
2018-12-07T18:44:07.203Z,78.87
2018-12-07T18:46:36.444Z,78.24
2018-12-07T18:49:06.072Z,78.19
2018-12-07T18:51:35.594Z,78.19
2018-12-07T18:54:04.796Z,77.32
2018-12-07T18:56:34.162Z,77.96
2018-12-07T18:59:03.661Z,78.07
2018-12-07T19:01:32.879Z,78.31
2018-12-07T19:04:02.232Z,77.41
2018-12-07T19:06:31.344Z,78.12
2018-12-07T19:09:00.979Z,78.92
2018-12-07T19:11:31.904Z,78.43
2018-12-07T19:14:01.134Z,79.17
2018-12-07T19:16:30.178Z,78.83
2018-12-07T19:19:01.749Z,78.45
2018-12-07T19:21:30.867Z,78.65
2018-12-07T19:24:01.764Z,79.14
2018-12-07T19:26:30.954Z,79.97
2018-12-07T19:29:00.477Z,80.46
2018-12-07T19:31:29.635Z,80.70
2018-12-07T19:33:59.022Z,80.12
2018-12-07T19:36:28.355Z,79.79
2018-12-07T19:38:58.184Z,80.48
2018-12-07T19:41:27.347Z,80.71
2018-12-07T19:43:57.189Z,80.58
2018-12-07T19:46:26.490Z,79.46
2018-12-07T19:48:56.181Z,80.34
2018-12-07T19:51:25.479Z,79.81
2018-12-07T19:53:55.336Z,79.09
2018-12-07T19:56:24.864Z,79.70
2018-12-07T19:58:54.225Z,78.71
2018-12-07T20:01:23.534Z,79.30
2018-12-07T20:03:53.116Z,79.83
2018-12-07T20:06:22.430Z,80.05
2018-12-07T20:08:51.584Z,79.53
2018-12-07T20:11:20.736Z,79.33
2018-12-07T20:13:50.942Z,79.14
2018-12-07T20:16:20.847Z,79.07
2018-12-07T20:18:50.102Z,78.42
2018-12-07T20:21:19.236Z,77.95
2018-12-07T20:23:49.330Z,78.19
2018-12-07T20:26:18.334Z,79.99
2018-12-07T20:28:47.410Z,79.59
2018-12-07T20:31:16.842Z,78.90
2018-12-07T20:33:46.183Z,78.46
2018-12-07T20:36:15.515Z,79.15
2018-12-07T20:38:44.857Z,78.92
2018-12-07T20:41:14.030Z,78.40
2018-12-07T20:43:43.138Z,79.42
2018-12-07T20:46:13.199Z,80.55
2018-12-07T20:48:43.531Z,81.85
2018-12-07T20:51:12.625Z,82.21
2018-12-07T20:53:41.634Z,81.64
2018-12-07T20:56:11.526Z,81.78
2018-12-07T20:58:41.218Z,80.93
2018-12-07T21:01:10.607Z,81.09
2018-12-07T21:04:15.202Z,81.49
2018-12-07T21:11:12.981Z,83.21
2018-12-07T21:13:59.262Z,82.95
2018-12-07T21:17:38.673Z,81.54
2018-12-07T21:20:21.089Z,80.59
2018-12-07T21:22:50.918Z,82.49
2018-12-07T21:25:20.249Z,82.91
2018-12-07T21:27:49.377Z,82.56
2018-12-07T21:30:39.947Z,81.86
2018-12-07T21:33:10.023Z,82.32
2018-12-07T21:36:34.206Z,82.44
2018-12-07T21:39:05.900Z,83.34
2018-12-07T21:41:36.077Z,82.79
2018-12-07T21:44:05.380Z,82.88
2018-12-07T21:46:35.402Z,82.92
2018-12-07T21:49:05.057Z,82.59
2018-12-07T21:51:43.130Z,83.50
2018-12-07T21:54:12.235Z,83.04
2018-12-07T21:56:42.701Z,83.69
2018-12-07T21:59:12.021Z,83.43
2018-12-07T22:01:41.638Z,83.47
2018-12-07T22:04:11.116Z,83.38
2018-12-07T22:06:40.426Z,83.40
2018-12-07T22:09:10.288Z,83.81
2018-12-07T22:11:41.711Z,84.17
2018-12-07T22:14:11.761Z,83.42
2018-12-07T22:16:40.966Z,84.14
2018-12-07T22:19:10.315Z,84.04
2018-12-07T22:21:39.681Z,84.10
2018-12-07T22:24:08.974Z,83.64
2018-12-07T22:26:38.490Z,84.59
2018-12-07T22:29:08.181Z,83.89
2018-12-07T22:31:37.378Z,83.76
2018-12-07T22:34:06.733Z,84.43
2018-12-07T22:36:36.115Z,84.36
2018-12-07T22:39:08.383Z,84.72
2018-12-07T22:41:38.070Z,84.95
2018-12-07T22:44:08.636Z,84.32
2018-12-07T22:46:38.222Z,84.24
2018-12-07T22:49:07.598Z,85.15
2018-12-07T22:51:36.732Z,84.84
2018-12-07T22:54:06.723Z,84.51
2018-12-07T22:56:36.966Z,83.72
2018-12-07T22:59:06.318Z,84.73
2018-12-07T23:01:35.495Z,84.50
2018-12-07T23:04:04.510Z,84.50
2018-12-07T23:06:33.541Z,84.02
2018-12-07T23:09:02.564Z,85.17
2018-12-07T23:11:32.869Z,84.83
2018-12-07T23:14:02.409Z,84.28
2018-12-07T23:16:31.469Z,84.46
2018-12-07T23:19:00.532Z,84.18
2018-12-07T23:21:29.993Z,84.55
2018-12-07T23:23:59.027Z,83.91
2018-12-07T23:26:28.176Z,84.17
2018-12-07T23:28:57.217Z,84.57
2018-12-07T23:31:26.434Z,84.42
2018-12-07T23:33:55.450Z,84.38
2018-12-07T23:36:25.953Z,84.94
2018-12-07T23:38:55.053Z,83.82
2018-12-07T23:41:24.145Z,84.76
2018-12-07T23:43:53.267Z,83.81
2018-12-07T23:46:22.401Z,84.29
2018-12-07T23:48:51.521Z,84.09
2018-12-07T23:51:20.848Z,84.17
2018-12-07T23:53:49.914Z,84.59
2018-12-07T23:56:18.954Z,84.08
2018-12-07T23:58:48.158Z,84.52
